createdAt,value
2017-03-13T00:00:28.138Z,0
2017-03-13T00:01:39.619Z,0
2017-03-13T00:02:51.476Z,0
2017-03-13T00:04:03.305Z,0
2017-03-13T00:05:14.759Z,0
2017-03-13T00:06:26.210Z,0
2017-03-13T00:07:37.670Z,0
2017-03-13T00:08:49.340Z,0
2017-03-13T00:10:00.812Z,0
2017-03-13T00:11:12.258Z,0
2017-03-13T00:12:23.719Z,0
2017-03-13T00:13:35.160Z,0
2017-03-13T00:14:46.618Z,0
2017-03-13T00:15:58.061Z,0
2017-03-13T00:17:09.494Z,0
2017-03-13T00:18:21.143Z,0
2017-03-13T00:19:32.610Z,0
2017-03-13T00:20:44.072Z,0
2017-03-13T00:21:55.725Z,0
2017-03-13T00:23:07.168Z,0
2017-03-13T00:24:18.923Z,0
2017-03-13T00:25:30.375Z,0
2017-03-13T00:26:42.022Z,0
2017-03-13T00:27:53.698Z,0
2017-03-13T00:29:05.136Z,0
2017-03-13T00:30:16.582Z,0
2017-03-13T00:31:28.039Z,0
2017-03-13T00:32:39.495Z,0
2017-03-13T00:33:50.946Z,0
2017-03-13T00:35:02.405Z,0
2017-03-13T00:36:14.048Z,0
2017-03-13T00:37:25.729Z,0
2017-03-13T00:38:37.388Z,0
2017-03-13T00:39:48.831Z,0
2017-03-13T00:41:00.490Z,0
2017-03-13T00:42:11.941Z,0
2017-03-13T00:43:23.400Z,0
2017-03-13T00:44:34.848Z,0
2017-03-13T00:45:46.301Z,0
2017-03-13T00:46:57.772Z,0
2017-03-13T00:48:09.230Z,0
2017-03-13T00:49:20.690Z,0
2017-03-13T00:50:32.129Z,0
2017-03-13T00:51:43.573Z,0
2017-03-13T00:52:55.013Z,0
2017-03-13T00:54:06.463Z,0
2017-03-13T00:55:18.147Z,0
2017-03-13T00:56:29.591Z,0
2017-03-13T00:57:41.064Z,0
2017-03-13T00:58:52.518Z,0
2017-03-13T01:00:03.961Z,0
2017-03-13T01:01:15.423Z,0
2017-03-13T01:02:26.875Z,0
2017-03-13T01:03:38.309Z,0
2017-03-13T01:04:49.775Z,0
2017-03-13T01:06:01.281Z,0
2017-03-13T01:07:12.734Z,0
2017-03-13T01:08:24.198Z,0
2017-03-13T01:09:35.900Z,0
2017-03-13T01:10:47.566Z,0
2017-03-13T01:11:59.026Z,0
2017-03-13T01:13:10.695Z,0
2017-03-13T01:14:22.334Z,0
2017-03-13T01:15:33.795Z,0
2017-03-13T01:16:45.485Z,0
2017-03-13T01:17:56.927Z,0
2017-03-13T01:19:08.395Z,0
2017-03-13T01:20:20.247Z,0
2017-03-13T01:21:31.692Z,0
2017-03-13T01:22:43.156Z,0
2017-03-13T01:23:54.825Z,0
2017-03-13T01:25:06.313Z,0
2017-03-13T01:26:17.741Z,0
2017-03-13T01:27:29.185Z,0
2017-03-13T01:28:40.685Z,0
2017-03-13T01:29:52.142Z,0
2017-03-13T01:31:03.587Z,0
2017-03-13T01:32:15.034Z,0
2017-03-13T01:33:26.494Z,0
2017-03-13T01:34:37.947Z,0
2017-03-13T01:35:49.404Z,0
2017-03-13T01:37:00.875Z,0
2017-03-13T01:38:12.328Z,0
2017-03-13T01:39:23.762Z,0
2017-03-13T01:40:35.230Z,0
2017-03-13T01:41:46.674Z,0
2017-03-13T01:42:58.115Z,0
2017-03-13T01:44:09.820Z,0
2017-03-13T01:45:21.278Z,0
2017-03-13T01:46:32.728Z,0
2017-03-13T01:47:44.241Z,0
2017-03-13T01:48:55.695Z,0
2017-03-13T01:50:07.141Z,0
2017-03-13T01:51:19.182Z,0
2017-03-13T01:52:30.660Z,0
2017-03-13T01:53:42.112Z,0
2017-03-13T01:54:53.554Z,0
2017-03-13T01:56:04.999Z,0
2017-03-13T01:57:16.461Z,0
2017-03-13T01:58:27.911Z,0
2017-03-13T01:59:39.354Z,0
2017-03-13T02:00:50.792Z,0
2017-03-13T02:02:02.447Z,0
2017-03-13T02:03:14.153Z,0
2017-03-13T02:04:25.597Z,0
2017-03-13T02:05:37.237Z,0
2017-03-13T02:06:48.690Z,0
2017-03-13T02:08:00.327Z,0
2017-03-13T02:09:12.005Z,0
2017-03-13T02:10:23.666Z,0
2017-03-13T02:11:35.111Z,0
2017-03-13T02:12:46.556Z,0
2017-03-13T02:13:58.025Z,0
2017-03-13T02:15:09.478Z,0
2017-03-13T02:16:20.937Z,0
2017-03-13T02:17:32.593Z,0
2017-03-13T02:18:44.097Z,0
2017-03-13T02:19:55.742Z,0
2017-03-13T02:21:07.399Z,0
2017-03-13T02:22:18.842Z,0
2017-03-13T02:23:30.307Z,0
2017-03-13T02:24:41.755Z,0
2017-03-13T02:25:53.609Z,0
2017-03-13T02:27:05.269Z,0
2017-03-13T02:28:16.918Z,0
2017-03-13T02:29:28.380Z,0
2017-03-13T02:30:39.820Z,0
2017-03-13T02:31:51.266Z,0
2017-03-13T02:33:02.732Z,0
2017-03-13T02:34:14.218Z,0
2017-03-13T02:35:25.898Z,0
2017-03-13T02:36:37.339Z,0
2017-03-13T02:37:48.813Z,0
2017-03-13T02:39:00.453Z,0
2017-03-13T02:40:12.123Z,0
2017-03-13T02:41:23.557Z,0
2017-03-13T02:42:35.006Z,0
2017-03-13T02:43:46.651Z,0
2017-03-13T02:44:58.147Z,0
2017-03-13T02:46:09.605Z,0
2017-03-13T02:47:21.054Z,0
2017-03-13T02:48:32.521Z,0
2017-03-13T02:49:43.965Z,0
2017-03-13T02:50:55.408Z,0
2017-03-13T02:52:07.072Z,0
2017-03-13T02:53:18.515Z,0
2017-03-13T02:54:29.974Z,0
2017-03-13T02:55:41.502Z,0
2017-03-13T02:56:52.948Z,0
2017-03-13T02:58:04.397Z,0
2017-03-13T02:59:15.858Z,0
2017-03-13T03:00:27.497Z,0
2017-03-13T03:01:38.944Z,0
2017-03-13T03:02:50.400Z,0
2017-03-13T03:04:02.055Z,0
2017-03-13T03:05:13.493Z,0
2017-03-13T03:06:24.960Z,0
2017-03-13T03:07:36.414Z,0
2017-03-13T03:08:47.878Z,0
2017-03-13T03:09:59.347Z,0
2017-03-13T03:11:11.004Z,0
2017-03-13T03:12:22.452Z,0
2017-03-13T03:13:33.898Z,0
2017-03-13T03:14:45.350Z,0
2017-03-13T03:15:56.826Z,0
2017-03-13T03:17:08.282Z,0
2017-03-13T03:18:19.724Z,0
2017-03-13T03:19:31.155Z,0
2017-03-13T03:20:42.596Z,0
2017-03-13T03:21:54.037Z,0
2017-03-13T03:23:05.479Z,0
2017-03-13T03:24:16.930Z,0
2017-03-13T03:25:28.360Z,0
2017-03-13T03:26:39.847Z,0
2017-03-13T03:27:51.280Z,0
2017-03-13T03:29:02.718Z,0
2017-03-13T03:30:14.165Z,0
2017-03-13T03:31:25.613Z,0
2017-03-13T03:32:37.251Z,0
2017-03-13T03:33:48.719Z,0
2017-03-13T03:35:00.154Z,0
2017-03-13T03:36:11.614Z,0
2017-03-13T03:37:23.250Z,0
2017-03-13T03:38:34.889Z,0
2017-03-13T03:39:46.560Z,0
2017-03-13T03:40:57.999Z,0
2017-03-13T03:42:09.463Z,0
2017-03-13T03:43:21.103Z,0
2017-03-13T03:44:32.590Z,0
2017-03-13T03:45:44.025Z,0
2017-03-13T03:46:55.505Z,0
2017-03-13T03:48:06.924Z,0
2017-03-13T03:49:18.374Z,0
2017-03-13T03:50:29.824Z,0
2017-03-13T03:51:41.271Z,0
2017-03-13T03:52:52.913Z,0
2017-03-13T03:54:04.366Z,0
2017-03-13T03:55:15.844Z,0
2017-03-13T03:56:27.483Z,0
2017-03-13T03:57:39.144Z,0
2017-03-13T03:58:50.605Z,0
2017-03-13T04:00:02.066Z,0
2017-03-13T04:01:13.538Z,0
2017-03-13T04:02:25.059Z,0
2017-03-13T04:03:36.524Z,0
2017-03-13T04:04:47.985Z,0
2017-03-13T04:05:59.428Z,0
2017-03-13T04:07:10.883Z,0
2017-03-13T04:08:22.332Z,0
2017-03-13T04:09:33.785Z,0
2017-03-13T04:10:45.634Z,0
2017-03-13T04:11:57.075Z,0
2017-03-13T04:13:08.548Z,0
2017-03-13T04:14:20.194Z,0
2017-03-13T04:15:32.248Z,0
2017-03-13T04:16:43.728Z,0
2017-03-13T04:17:55.161Z,0
2017-03-13T04:19:06.611Z,0
2017-03-13T04:20:18.270Z,0
2017-03-13T04:21:29.730Z,0
2017-03-13T04:22:41.184Z,0
2017-03-13T04:23:52.881Z,0
2017-03-13T04:25:04.330Z,0
2017-03-13T04:26:15.992Z,0
2017-03-13T04:27:27.421Z,0
2017-03-13T04:28:38.867Z,0
2017-03-13T04:29:50.310Z,0
2017-03-13T04:31:01.788Z,0
2017-03-13T04:32:13.245Z,0
2017-03-13T04:33:24.693Z,0
2017-03-13T04:34:36.130Z,0
2017-03-13T04:35:47.599Z,0
2017-03-13T04:36:59.044Z,0
2017-03-13T04:38:10.469Z,0
2017-03-13T04:39:21.992Z,0
2017-03-13T04:40:33.454Z,0
2017-03-13T04:41:44.903Z,0
2017-03-13T04:42:56.356Z,0
2017-03-13T04:44:07.809Z,0
2017-03-13T04:45:19.243Z,0
2017-03-13T04:46:30.685Z,0
2017-03-13T04:47:42.313Z,0
2017-03-13T04:48:53.988Z,0
2017-03-13T04:50:05.442Z,0
2017-03-13T04:51:16.874Z,0
2017-03-13T04:52:28.310Z,0
2017-03-13T04:53:39.968Z,0
2017-03-13T04:54:51.492Z,0
2017-03-13T04:56:02.939Z,0
2017-03-13T04:57:14.374Z,0
2017-03-13T04:58:25.832Z,0
2017-03-13T04:59:37.474Z,0
2017-03-13T05:00:48.918Z,0
2017-03-13T05:02:00.368Z,0
2017-03-13T05:03:11.826Z,0
2017-03-13T05:04:23.289Z,0
2017-03-13T05:05:34.985Z,0
2017-03-13T05:06:46.625Z,0
2017-03-13T05:07:58.083Z,0
2017-03-13T05:09:09.533Z,0
2017-03-13T05:10:21.169Z,0
2017-03-13T05:11:32.616Z,0
2017-03-13T05:12:44.059Z,0
2017-03-13T05:13:55.497Z,4
2017-03-13T05:15:06.957Z,4
2017-03-13T05:16:18.409Z,0
2017-03-13T05:17:29.857Z,4
2017-03-13T05:18:41.315Z,0
2017-03-13T05:19:52.764Z,4
2017-03-13T05:21:04.468Z,4
2017-03-13T05:22:15.944Z,4
2017-03-13T05:23:27.603Z,8
2017-03-13T05:24:39.052Z,12
2017-03-13T05:25:50.695Z,12
2017-03-13T05:27:02.143Z,16
2017-03-13T05:28:13.607Z,16
2017-03-13T05:29:25.058Z,24
2017-03-13T05:30:36.705Z,32
2017-03-13T05:31:48.430Z,36
2017-03-13T05:33:00.088Z,44
2017-03-13T05:34:11.743Z,52
2017-03-13T05:35:23.190Z,60
2017-03-13T05:36:34.842Z,72
2017-03-13T05:37:46.285Z,84
2017-03-13T05:38:57.940Z,96
2017-03-13T05:40:09.571Z,112
2017-03-13T05:41:21.025Z,132
2017-03-13T05:42:32.514Z,152
2017-03-13T05:43:43.970Z,172
2017-03-13T05:44:55.419Z,200
2017-03-13T05:46:06.891Z,228
2017-03-13T05:47:18.335Z,264
2017-03-13T05:48:29.790Z,300
2017-03-13T05:49:41.652Z,336
2017-03-13T05:50:53.311Z,372
2017-03-13T05:52:04.775Z,408
2017-03-13T05:53:16.279Z,448
2017-03-13T05:54:27.739Z,492
2017-03-13T05:55:39.205Z,540
2017-03-13T05:56:50.862Z,596
2017-03-13T05:58:02.323Z,660
2017-03-13T05:59:13.785Z,732
2017-03-13T06:00:25.235Z,816
2017-03-13T06:01:36.879Z,896
2017-03-13T06:02:48.733Z,972
2017-03-13T06:04:00.215Z,1044
2017-03-13T06:05:11.719Z,1120
2017-03-13T06:06:23.175Z,1208
2017-03-13T06:07:34.644Z,1308
2017-03-13T06:08:46.088Z,1420
2017-03-13T06:09:57.549Z,1560
2017-03-13T06:11:08.996Z,1696
2017-03-13T06:12:20.447Z,1808
2017-03-13T06:13:31.884Z,1948
2017-03-13T06:14:43.636Z,2100
2017-03-13T06:15:55.283Z,2272
2017-03-13T06:17:06.743Z,2476
2017-03-13T06:18:18.215Z,2932
2017-03-13T06:19:29.655Z,3828
2017-03-13T06:20:41.314Z,4892
2017-03-13T06:21:52.767Z,5296
2017-03-13T06:23:04.245Z,5376
2017-03-13T06:24:15.679Z,4696
2017-03-13T06:25:27.425Z,4036
2017-03-13T06:26:38.873Z,4944
2017-03-13T06:27:50.521Z,5448
2017-03-13T06:29:01.987Z,4908
2017-03-13T06:30:13.461Z,6112
2017-03-13T06:31:25.138Z,7132
2017-03-13T06:32:36.587Z,6916
2017-03-13T06:33:48.041Z,6356
2017-03-13T06:34:59.481Z,5968
2017-03-13T06:36:10.903Z,6024
2017-03-13T06:37:22.361Z,6068
2017-03-13T06:38:33.808Z,6044
2017-03-13T06:39:45.463Z,6696
2017-03-13T06:40:56.913Z,6820
2017-03-13T06:42:08.433Z,7708
2017-03-13T06:43:19.887Z,7684
2017-03-13T06:44:31.544Z,7596
2017-03-13T06:45:43.189Z,8280
2017-03-13T06:46:54.829Z,8880
2017-03-13T06:48:06.493Z,9308
2017-03-13T06:49:17.950Z,9056
2017-03-13T06:50:29.386Z,9300
2017-03-13T06:51:40.840Z,9604
2017-03-13T06:52:52.333Z,9928
2017-03-13T06:54:04.001Z,10452
2017-03-13T06:55:15.434Z,10840
2017-03-13T06:56:26.877Z,12048
2017-03-13T06:57:38.559Z,12616
2017-03-13T06:58:50.016Z,16480
2017-03-13T07:00:01.463Z,19584
2017-03-13T07:01:13.316Z,16096
2017-03-13T07:02:24.778Z,17568
2017-03-13T07:03:36.501Z,20000
2017-03-13T07:04:48.153Z,22048
2017-03-13T07:05:59.595Z,22368
2017-03-13T07:07:11.068Z,19744
2017-03-13T07:08:23.126Z,21408
2017-03-13T07:09:34.570Z,25824
2017-03-13T07:10:46.029Z,27904
2017-03-13T07:11:57.674Z,23008
2017-03-13T07:13:09.134Z,25792
2017-03-13T07:14:20.874Z,21472
2017-03-13T07:15:32.362Z,22816
2017-03-13T07:16:44.004Z,20768
2017-03-13T07:17:55.457Z,19264
2017-03-13T07:19:06.891Z,19936
2017-03-13T07:20:18.548Z,22400
2017-03-13T07:21:30.000Z,20736
2017-03-13T07:22:41.650Z,21920
2017-03-13T07:23:53.105Z,23264
2017-03-13T07:25:04.599Z,25088
2017-03-13T07:26:16.053Z,26816
2017-03-13T07:27:27.508Z,25792
2017-03-13T07:28:38.977Z,26208
2017-03-13T07:29:50.429Z,24672
2017-03-13T07:31:02.073Z,25536
2017-03-13T07:32:13.519Z,18496
2017-03-13T07:33:24.976Z,18176
2017-03-13T07:34:36.437Z,21440
2017-03-13T07:35:48.165Z,25024
2017-03-13T07:36:59.628Z,24928
2017-03-13T07:38:11.075Z,27840
2017-03-13T07:39:22.738Z,25696
2017-03-13T07:40:34.194Z,19904
2017-03-13T07:41:45.634Z,19584
2017-03-13T07:42:57.129Z,19232
2017-03-13T07:44:08.582Z,18912
2017-03-13T07:45:20.035Z,21984
2017-03-13T07:46:31.503Z,25120
2017-03-13T07:47:43.018Z,27232
2017-03-13T07:48:54.470Z,24160
2017-03-13T07:50:06.124Z,24672
2017-03-13T07:51:17.787Z,25696
2017-03-13T07:52:29.242Z,25728
2017-03-13T07:53:40.691Z,26272
2017-03-13T07:54:52.163Z,25024
2017-03-13T07:56:03.642Z,24768
2017-03-13T07:57:15.135Z,24960
2017-03-13T07:58:26.781Z,24224
2017-03-13T07:59:38.244Z,23840
2017-03-13T08:00:49.701Z,22144
2017-03-13T08:02:01.173Z,22208
2017-03-13T08:03:12.674Z,21152
2017-03-13T08:04:24.127Z,23712
2017-03-13T08:05:35.779Z,28832
2017-03-13T08:06:47.258Z,30624
2017-03-13T08:07:58.719Z,30432
2017-03-13T08:09:10.412Z,24352
2017-03-13T08:10:21.854Z,22336
2017-03-13T08:11:33.317Z,20800
2017-03-13T08:12:44.777Z,20224
2017-03-13T08:13:56.243Z,18304
2017-03-13T08:15:07.734Z,17376
2017-03-13T08:16:19.199Z,16000
2017-03-13T08:17:30.886Z,14956
2017-03-13T08:18:42.380Z,14688
2017-03-13T08:19:53.846Z,13988
2017-03-13T08:21:05.534Z,13468
2017-03-13T08:22:17.039Z,12736
2017-03-13T08:23:28.501Z,12476
2017-03-13T08:24:40.392Z,12556
2017-03-13T08:25:51.857Z,12604
2017-03-13T08:27:03.623Z,12948
2017-03-13T08:28:15.082Z,13128
2017-03-13T08:29:26.526Z,13136
2017-03-13T08:30:37.971Z,12920
2017-03-13T08:31:49.445Z,12836
2017-03-13T08:33:01.210Z,12864
2017-03-13T08:34:12.674Z,12880
2017-03-13T08:35:24.143Z,13024
2017-03-13T08:36:35.617Z,13484
2017-03-13T08:37:47.098Z,14696
2017-03-13T08:38:58.611Z,15616
2017-03-13T08:40:10.244Z,17408
2017-03-13T08:41:21.706Z,21152
2017-03-13T08:42:33.162Z,20576
2017-03-13T08:43:44.616Z,18432
2017-03-13T08:44:56.414Z,19168
2017-03-13T08:46:07.874Z,20416
2017-03-13T08:47:19.330Z,21920
2017-03-13T08:48:30.780Z,19712
2017-03-13T08:49:42.251Z,22112
2017-03-13T08:50:53.774Z,24448
2017-03-13T08:52:05.650Z,25504
2017-03-13T08:53:17.120Z,41248
2017-03-13T08:54:28.607Z,62048
2017-03-13T08:55:40.278Z,66624
2017-03-13T08:56:52.194Z,62944
2017-03-13T08:58:03.654Z,72704
2017-03-13T08:59:15.126Z,75712
2017-03-13T09:00:26.584Z,77536
2017-03-13T09:01:38.449Z,80448
2017-03-13T09:02:50.162Z,82112
2017-03-13T09:04:01.634Z,82112
2017-03-13T09:05:13.094Z,74560
2017-03-13T09:06:24.568Z,82336
2017-03-13T09:07:36.049Z,83616
2017-03-13T09:08:47.578Z,82560
2017-03-13T09:09:59.058Z,84608
2017-03-13T09:11:10.543Z,86368
2017-03-13T09:12:22.018Z,86880
2017-03-13T09:13:33.492Z,86304
2017-03-13T09:14:45.276Z,83264
2017-03-13T09:15:56.754Z,82976
2017-03-13T09:17:08.426Z,78976
2017-03-13T09:18:19.884Z,76576
2017-03-13T09:19:31.374Z,79936
2017-03-13T09:20:43.109Z,82112
2017-03-13T09:21:54.615Z,79104
2017-03-13T09:23:06.299Z,77696
2017-03-13T09:24:17.786Z,77312
2017-03-13T09:25:29.304Z,76064
2017-03-13T09:26:40.827Z,76736
2017-03-13T09:27:52.509Z,76992
2017-03-13T09:29:04.207Z,78528
2017-03-13T09:30:15.722Z,85856
2017-03-13T09:31:27.396Z,84768
2017-03-13T09:32:39.108Z,80224
2017-03-13T09:33:50.795Z,79840
2017-03-13T09:35:02.255Z,80608
2017-03-13T09:36:13.735Z,81376
2017-03-13T09:37:25.405Z,82976
2017-03-13T09:38:36.945Z,84448
2017-03-13T09:39:48.420Z,83104
2017-03-13T09:40:59.913Z,81728
2017-03-13T09:42:11.365Z,79328
2017-03-13T09:43:22.859Z,77472
2017-03-13T09:44:34.644Z,78656
2017-03-13T09:45:46.125Z,77312
2017-03-13T09:46:57.801Z,74208
2017-03-13T09:48:09.458Z,71744
2017-03-13T09:49:20.933Z,68032
2017-03-13T09:50:32.498Z,73088
2017-03-13T09:51:43.990Z,77344
2017-03-13T09:52:55.472Z,65120
2017-03-13T09:54:06.986Z,64992
2017-03-13T09:55:18.672Z,67552
2017-03-13T09:56:30.416Z,66816
2017-03-13T09:57:41.887Z,59712
2017-03-13T09:58:53.561Z,56512
2017-03-13T10:00:05.233Z,53888
2017-03-13T10:01:16.689Z,44000
2017-03-13T10:02:28.206Z,40672
2017-03-13T10:03:39.699Z,39712
2017-03-13T10:04:51.400Z,40864
2017-03-13T10:06:02.864Z,43104
2017-03-13T10:07:14.337Z,44864
2017-03-13T10:08:26.076Z,52256
2017-03-13T10:09:37.556Z,50752
2017-03-13T10:10:49.045Z,53696
2017-03-13T10:12:00.512Z,47168
2017-03-13T10:13:11.989Z,43424
2017-03-13T10:14:23.517Z,41920
2017-03-13T10:15:35.003Z,45344
2017-03-13T10:16:46.488Z,48224
2017-03-13T10:17:57.978Z,54656
2017-03-13T10:19:09.460Z,58816
2017-03-13T10:20:21.012Z,59328
2017-03-13T10:21:32.475Z,57056
2017-03-13T10:22:43.960Z,54368
2017-03-13T10:23:55.446Z,54592
2017-03-13T10:25:06.939Z,58528
2017-03-13T10:26:18.867Z,59392
2017-03-13T10:27:30.341Z,61888
2017-03-13T10:28:41.810Z,64192
2017-03-13T10:29:53.486Z,41664
2017-03-13T10:31:05.168Z,43552
2017-03-13T10:32:16.689Z,52256
2017-03-13T10:33:28.159Z,37792
2017-03-13T10:34:39.861Z,50752
2017-03-13T10:35:51.330Z,43520
2017-03-13T10:37:02.788Z,33472
2017-03-13T10:38:14.713Z,29792
2017-03-13T10:39:26.171Z,36768
2017-03-13T10:40:37.659Z,45568
2017-03-13T10:41:49.118Z,53440
2017-03-13T10:43:00.794Z,53376
2017-03-13T10:44:12.520Z,51168
2017-03-13T10:45:24.016Z,51360
2017-03-13T10:46:35.486Z,58592
2017-03-13T10:47:46.941Z,55296
2017-03-13T10:48:58.403Z,55200
2017-03-13T10:50:09.903Z,59360
2017-03-13T10:51:21.380Z,62880
2017-03-13T10:52:32.863Z,63072
2017-03-13T10:53:44.332Z,65312
2017-03-13T10:54:55.799Z,64512
2017-03-13T10:56:07.314Z,63200
2017-03-13T10:57:18.770Z,64480
2017-03-13T10:58:30.439Z,62336
2017-03-13T10:59:41.907Z,62624
2017-03-13T11:00:53.427Z,63776
2017-03-13T11:02:04.958Z,62112
2017-03-13T11:03:16.416Z,61120
2017-03-13T11:04:27.884Z,61632
2017-03-13T11:05:39.352Z,63744
2017-03-13T11:06:50.842Z,61312
2017-03-13T11:08:02.366Z,62976
2017-03-13T11:09:13.889Z,61888
2017-03-13T11:10:25.550Z,62816
2017-03-13T11:11:37.015Z,61760
2017-03-13T11:12:48.890Z,58208
2017-03-13T11:14:00.619Z,59072
2017-03-13T11:15:12.078Z,58624
2017-03-13T11:16:23.541Z,61056
2017-03-13T11:17:35.058Z,55456
2017-03-13T11:18:46.549Z,51552
2017-03-13T11:19:58.474Z,54784
2017-03-13T11:21:09.932Z,52032
2017-03-13T11:22:21.408Z,52160
2017-03-13T11:23:32.911Z,54880
2017-03-13T11:24:44.392Z,52800
2017-03-13T11:25:56.162Z,57728
2017-03-13T11:27:07.663Z,56096
2017-03-13T11:28:19.125Z,53536
2017-03-13T11:29:30.618Z,51936
2017-03-13T11:30:42.302Z,48288
2017-03-13T11:31:54.032Z,46656
2017-03-13T11:33:05.726Z,45280
2017-03-13T11:34:17.400Z,44352
2017-03-13T11:35:28.882Z,45216
2017-03-13T11:36:40.383Z,43392
2017-03-13T11:37:52.114Z,44608
2017-03-13T11:39:03.587Z,41312
2017-03-13T11:40:15.264Z,40832
2017-03-13T11:41:26.743Z,36160
2017-03-13T11:42:38.225Z,36736
2017-03-13T11:43:49.942Z,37984
2017-03-13T11:45:01.407Z,36864
2017-03-13T11:46:12.868Z,35392
2017-03-13T11:47:24.350Z,36096
2017-03-13T11:48:35.829Z,34048
2017-03-13T11:49:47.549Z,34720
2017-03-13T11:50:59.038Z,32672
2017-03-13T11:52:10.511Z,32704
2017-03-13T11:53:21.999Z,32992
2017-03-13T11:54:33.500Z,31168
2017-03-13T11:55:45.257Z,30944
2017-03-13T11:56:56.933Z,29664
2017-03-13T11:58:08.394Z,30656
2017-03-13T11:59:19.874Z,28064
2017-03-13T12:00:31.362Z,23968
2017-03-13T12:01:43.085Z,24224
2017-03-13T12:02:54.576Z,24960
2017-03-13T12:04:06.053Z,23808
2017-03-13T12:05:17.528Z,22304
2017-03-13T12:06:29.211Z,21536
2017-03-13T12:07:40.735Z,22464
2017-03-13T12:08:52.190Z,23200
2017-03-13T12:10:03.866Z,24480
2017-03-13T12:11:15.362Z,23488
2017-03-13T12:12:27.023Z,22816
2017-03-13T12:13:38.753Z,23648
2017-03-13T12:14:50.231Z,23488
2017-03-13T12:16:01.915Z,20480
2017-03-13T12:17:13.390Z,18304
2017-03-13T12:18:24.858Z,16960
2017-03-13T12:19:36.521Z,16896
2017-03-13T12:20:48.061Z,16608
2017-03-13T12:21:59.570Z,16960
2017-03-13T12:23:11.027Z,19008
2017-03-13T12:24:22.510Z,20544
2017-03-13T12:25:33.977Z,19616
2017-03-13T12:26:45.699Z,20128
2017-03-13T12:27:57.175Z,20800
2017-03-13T12:29:08.676Z,21088
2017-03-13T12:30:20.132Z,20576
2017-03-13T12:31:31.610Z,20736
2017-03-13T12:32:43.144Z,18528
2017-03-13T12:33:54.618Z,17504
2017-03-13T12:35:06.067Z,18464
2017-03-13T12:36:17.528Z,17152
2017-03-13T12:37:29.003Z,14208
2017-03-13T12:38:40.732Z,12492
2017-03-13T12:39:52.425Z,16736
2017-03-13T12:41:04.102Z,19072
2017-03-13T12:42:15.609Z,18752
2017-03-13T12:43:27.061Z,17984
2017-03-13T12:44:38.775Z,18144
2017-03-13T12:45:50.249Z,18784
2017-03-13T12:47:01.931Z,18784
2017-03-13T12:48:13.406Z,18336
2017-03-13T12:49:25.080Z,16896
2017-03-13T12:50:36.788Z,14656
2017-03-13T12:54:12.948Z,14120
2017-03-13T12:55:24.435Z,13532
2017-03-13T12:56:35.979Z,13668
2017-03-13T12:57:47.472Z,13008
2017-03-13T12:58:58.939Z,13448
2017-03-13T13:00:10.386Z,10984
2017-03-13T13:01:21.820Z,10980
2017-03-13T13:02:33.446Z,11276
2017-03-13T13:03:44.874Z,10664
2017-03-13T13:04:56.509Z,10888
2017-03-13T13:06:07.933Z,11296
2017-03-13T13:07:19.373Z,10792
2017-03-13T13:08:31.250Z,9804
2017-03-13T13:09:42.681Z,9472
2017-03-13T13:10:54.297Z,9432
2017-03-13T13:12:05.711Z,8852
2017-03-13T13:13:17.332Z,8532
2017-03-13T13:14:28.997Z,8580
2017-03-13T13:15:40.424Z,8484
2017-03-13T13:16:51.846Z,7996
2017-03-13T13:18:03.472Z,7284
2017-03-13T13:19:14.899Z,7584
2017-03-13T13:20:26.373Z,8336
2017-03-13T13:21:37.795Z,8044
2017-03-13T13:22:49.221Z,8300
2017-03-13T13:24:00.655Z,8580
2017-03-13T13:25:12.083Z,8884
2017-03-13T13:26:23.806Z,8836
2017-03-13T13:27:35.234Z,7932
2017-03-13T13:28:46.668Z,7744
2017-03-13T13:29:58.098Z,8476
2017-03-13T13:31:09.720Z,8272
2017-03-13T13:32:21.402Z,7900
2017-03-13T13:33:33.028Z,7128
2017-03-13T13:34:44.459Z,7080
2017-03-13T13:35:55.885Z,6808
2017-03-13T13:37:07.309Z,7016
2017-03-13T13:38:18.987Z,7608
2017-03-13T13:39:30.616Z,7252
2017-03-13T13:40:42.248Z,7156
2017-03-13T13:41:53.674Z,7140
2017-03-13T13:43:05.100Z,7124
2017-03-13T13:44:16.573Z,7180
2017-03-13T13:45:28.018Z,7232
2017-03-13T13:46:39.447Z,6840
2017-03-13T13:47:51.076Z,7088
2017-03-13T13:49:02.505Z,6724
2017-03-13T13:50:14.183Z,6796
2017-03-13T13:51:25.610Z,7044
2017-03-13T13:52:37.041Z,6960
2017-03-13T13:53:48.472Z,6860
2017-03-13T13:54:59.894Z,5948
2017-03-13T13:56:11.364Z,5664
2017-03-13T13:57:22.982Z,5564
2017-03-13T13:58:34.404Z,5144
2017-03-13T13:59:45.821Z,5440
2017-03-13T14:00:57.244Z,5740
2017-03-13T14:02:08.721Z,5596
2017-03-13T14:03:20.355Z,5832
2017-03-13T14:04:31.771Z,6000
2017-03-13T14:05:43.217Z,5824
2017-03-13T14:06:54.646Z,5848
2017-03-13T14:08:06.117Z,5752
2017-03-13T14:09:17.538Z,5832
2017-03-13T14:10:28.961Z,5920
2017-03-13T14:11:40.392Z,6012
2017-03-13T14:12:51.821Z,6436
2017-03-13T14:14:03.694Z,6440
2017-03-13T14:15:15.105Z,6380
2017-03-13T14:16:26.515Z,6652
2017-03-13T14:17:37.937Z,6800
2017-03-13T14:18:49.356Z,6528
2017-03-13T14:20:01.031Z,6672
2017-03-13T14:21:12.857Z,6584
2017-03-13T14:22:24.682Z,6668
2017-03-13T14:23:36.312Z,6432
2017-03-13T14:24:47.726Z,6524
2017-03-13T14:25:59.400Z,6492
2017-03-13T14:27:10.832Z,6532
2017-03-13T14:28:22.247Z,6748
2017-03-13T14:29:33.662Z,7152
2017-03-13T14:30:45.081Z,7176
2017-03-13T14:31:56.753Z,6976
2017-03-13T14:33:08.182Z,7000
2017-03-13T14:34:19.594Z,6788
2017-03-13T14:35:31.013Z,6824
2017-03-13T14:36:42.425Z,7072
2017-03-13T14:37:54.092Z,7140
2017-03-13T14:39:05.511Z,6956
2017-03-13T14:40:16.931Z,6644
2017-03-13T14:41:28.348Z,6196
2017-03-13T14:42:39.965Z,6084
2017-03-13T14:43:51.443Z,6156
2017-03-13T14:45:02.863Z,6276
2017-03-13T14:46:14.285Z,6356
2017-03-13T14:47:25.711Z,6376
2017-03-13T14:48:37.335Z,6540
2017-03-13T14:49:49.020Z,6488
2017-03-13T14:51:00.640Z,6388
2017-03-13T14:52:12.059Z,6180
2017-03-13T14:53:23.489Z,6028
2017-03-13T14:54:34.913Z,5944
2017-03-13T14:55:46.833Z,5904
2017-03-13T14:56:58.259Z,5836
2017-03-13T14:58:09.686Z,5920
2017-03-13T14:59:21.512Z,6148
2017-03-13T15:00:32.931Z,6304
2017-03-13T15:01:44.603Z,6224
2017-03-13T15:02:56.023Z,5972
2017-03-13T15:04:07.441Z,5796
2017-03-13T15:05:18.870Z,5888
2017-03-13T15:06:30.490Z,6208
2017-03-13T15:07:42.160Z,6164
2017-03-13T15:08:53.783Z,5684
2017-03-13T15:10:05.202Z,5252
2017-03-13T15:11:16.825Z,5088
2017-03-13T15:12:28.449Z,4936
2017-03-13T15:13:40.132Z,4816
2017-03-13T15:14:51.557Z,4736
2017-03-13T15:16:03.183Z,4756
2017-03-13T15:17:14.598Z,4828
2017-03-13T15:18:26.217Z,4792
2017-03-13T15:19:37.893Z,4896
2017-03-13T15:20:49.311Z,4960
2017-03-13T15:22:00.736Z,5076
2017-03-13T15:23:12.159Z,5044
2017-03-13T15:24:23.591Z,4808
2017-03-13T15:25:35.461Z,4520
2017-03-13T15:26:46.891Z,4296
2017-03-13T15:27:58.309Z,4200
2017-03-13T15:29:09.739Z,4168
2017-03-13T15:30:21.161Z,4120
2017-03-13T15:31:32.833Z,4088
2017-03-13T15:32:44.257Z,4076
2017-03-13T15:33:55.682Z,4008
2017-03-13T15:35:07.128Z,3900
2017-03-13T15:36:18.553Z,3752
2017-03-13T15:37:30.023Z,3608
2017-03-13T15:38:41.437Z,3552
2017-03-13T15:39:52.850Z,3640
2017-03-13T15:41:04.277Z,3740
2017-03-13T15:42:15.903Z,3796
2017-03-13T15:43:27.580Z,3836
2017-03-13T15:44:39.005Z,3896
2017-03-13T15:45:50.658Z,3740
2017-03-13T15:47:02.072Z,3684
2017-03-13T15:48:13.490Z,3644
2017-03-13T15:49:24.959Z,3552
2017-03-13T15:50:36.379Z,3436
2017-03-13T15:51:47.998Z,3232
2017-03-13T15:52:59.424Z,3060
2017-03-13T15:54:10.840Z,2868
2017-03-13T15:55:22.319Z,2716
2017-03-13T15:56:33.738Z,2572
2017-03-13T15:57:45.155Z,2452
2017-03-13T15:58:56.776Z,2376
2017-03-13T16:00:08.198Z,2292
2017-03-13T16:01:19.669Z,2172
2017-03-13T16:02:31.316Z,2132
2017-03-13T16:03:42.752Z,2096
2017-03-13T16:04:54.178Z,2080
2017-03-13T16:06:05.598Z,1992
2017-03-13T16:07:17.270Z,1892
2017-03-13T16:08:28.687Z,1808
2017-03-13T16:09:40.303Z,1736
2017-03-13T16:10:51.931Z,1664
2017-03-13T16:12:03.353Z,1564
2017-03-13T16:13:14.820Z,1464
2017-03-13T16:14:26.455Z,1412
2017-03-13T16:15:37.883Z,1448